createdAt,value
2023-05-10T03:04:33.112Z,101004.81
2023-05-10T04:59:49.699Z,101044.25
2023-05-10T05:28:45.148Z,101066.06
2023-05-10T05:37:25.565Z,101075.03
2023-05-10T05:41:34.235Z,101072.31
2023-05-10T05:46:19.086Z,101076.59
2023-05-10T05:54:28.529Z,101082.47
2023-05-10T05:57:07.137Z,101091.03
2023-05-10T05:59:47.991Z,101091.44
2023-05-10T06:05:00.568Z,101100.03
2023-05-10T06:10:18.089Z,101104.72
2023-05-10T06:12:44.811Z,101102.38
2023-05-10T06:15:16.012Z,101105.13
2023-05-10T06:17:46.004Z,101105.88
2023-05-10T06:20:40.184Z,101110.97
2023-05-10T06:23:04.917Z,101113.28
2023-05-10T06:25:31.670Z,101119.53
2023-05-10T06:27:59.055Z,101113.69
2023-05-10T06:30:30.116Z,101117.97
2023-05-10T06:32:57.611Z,101121.09
2023-05-10T06:35:24.698Z,101117.22
2023-05-10T06:37:52.298Z,101121.88
2023-05-10T06:40:20.519Z,101120.72
2023-05-10T06:42:47.765Z,101114.84
2023-05-10T06:45:15.863Z,101118.75
2023-05-10T06:47:42.873Z,101120.31
2023-05-10T06:50:10.711Z,101131.25
2023-05-10T06:52:38.171Z,101130.47
2023-05-10T06:55:05.407Z,101132.41
2023-05-10T06:57:32.791Z,101138.25
2023-05-10T07:00:00.029Z,101132.03
2023-05-10T07:02:26.690Z,101139.81
2023-05-10T07:04:53.442Z,101142.16
2023-05-10T07:07:20.225Z,101141.78
2023-05-10T07:12:23.292Z,101141.38
2023-05-10T07:15:18.648Z,101151.94
2023-05-10T07:17:46.668Z,101151.94
2023-05-10T07:20:15.031Z,101149.19
2023-05-10T07:22:41.715Z,101157.41
2023-05-10T07:25:08.632Z,101151.53
2023-05-10T07:27:35.526Z,101149.56
2023-05-10T07:30:03.522Z,101160.91
2023-05-10T07:32:30.148Z,101159.31
2023-05-10T07:34:56.785Z,101172.22
2023-05-10T07:37:23.603Z,101173.38
2023-05-10T07:42:35.914Z,101165.19
2023-05-10T07:45:05.153Z,101172.59
2023-05-10T07:47:31.920Z,101182.34
2023-05-10T07:53:01.929Z,101186.22
2023-05-10T07:55:28.615Z,101183.09
2023-05-10T07:57:55.226Z,101189.72
2023-05-10T08:00:49.057Z,101191.28
2023-05-10T08:03:18.695Z,101190.91
2023-05-10T08:05:45.571Z,101191.28
2023-05-10T08:08:18.481Z,101197.94
2023-05-10T08:10:45.369Z,101201.84
2023-05-10T08:13:15.380Z,101194.06
2023-05-10T08:15:42.049Z,101201.47
2023-05-10T08:18:08.787Z,101204.97
2023-05-10T08:20:35.463Z,101206.53
2023-05-10T08:27:12.438Z,101221.75
2023-05-10T08:29:49.725Z,101208.47
2023-05-10T08:32:42.375Z,101210.03
2023-05-10T08:35:07.024Z,101212.00
2023-05-10T08:37:34.119Z,101218.25
2023-05-10T08:40:00.882Z,101222.16
2023-05-10T08:42:31.303Z,101232.31
2023-05-10T08:44:59.155Z,101244.81
2023-05-10T08:47:26.528Z,101235.41
2023-05-10T08:49:53.581Z,101237.34
2023-05-10T08:52:20.989Z,101241.28
2023-05-10T08:54:48.050Z,101244.00
2023-05-10T08:57:14.719Z,101242.06
2023-05-10T08:59:41.498Z,101243.59
2023-05-10T09:02:13.393Z,101242.81
2023-05-10T09:04:40.227Z,101247.09
2023-05-10T09:07:08.174Z,101243.19
2023-05-10T09:09:36.013Z,101250.97
2023-05-10T09:12:02.657Z,101247.44
2023-05-10T09:14:30.017Z,101246.22
2023-05-10T09:16:57.360Z,101243.50
2023-05-10T09:19:23.922Z,101240.34
2023-05-10T09:21:50.778Z,101244.63
2023-05-10T09:24:17.213Z,101253.56
2023-05-10T09:26:49.320Z,101256.69
2023-05-10T09:29:17.473Z,101256.31
2023-05-10T09:31:48.037Z,101259.38
2023-05-10T09:34:20.315Z,101260.50
2023-05-10T09:36:53.723Z,101261.66
2023-05-10T09:39:20.482Z,101261.16
2023-05-10T09:41:47.863Z,101265.41
2023-05-10T09:44:19.684Z,101275.56
2023-05-10T09:46:50.847Z,101269.25
2023-05-10T09:49:17.362Z,101277.47
2023-05-10T09:51:43.851Z,101274.75
2023-05-10T09:54:12.157Z,101285.31
2023-05-10T09:56:41.384Z,101286.16
2023-05-10T09:59:11.098Z,101288.56
2023-05-10T10:01:38.489Z,101297.16
2023-05-10T10:04:06.905Z,101293.66
2023-05-10T10:06:38.608Z,101295.22
2023-05-10T10:09:06.006Z,101295.22
2023-05-10T10:11:33.960Z,101299.91
2023-05-10T10:14:00.840Z,101292.06
2023-05-10T10:16:29.924Z,101294.34
2023-05-10T10:18:57.119Z,101300.50
2023-05-10T10:21:25.724Z,101298.09
2023-05-10T10:23:53.706Z,101306.69
2023-05-10T10:26:22.091Z,101301.19
2023-05-10T10:28:57.985Z,101307.44
2023-05-10T10:31:36.636Z,101303.56
2023-05-10T10:34:11.087Z,101305.97
2023-05-10T10:36:48.054Z,101314.94
2023-05-10T10:39:15.769Z,101309.47
2023-05-10T10:41:53.024Z,101307.13
2023-05-10T10:44:24.408Z,101309.09
2023-05-10T10:47:26.261Z,101309.09
2023-05-10T10:49:58.747Z,101312.59
2023-05-10T10:52:30.133Z,101310.63
2023-05-10T10:55:06.365Z,101314.50
2023-05-10T10:57:34.862Z,101309.03
2023-05-10T11:00:22.768Z,101316.06
2023-05-10T11:02:52.875Z,101305.44
2023-05-10T11:05:34.455Z,101304.25
2023-05-10T11:08:07.714Z,101316.00
2023-05-10T11:10:34.291Z,101312.53
2023-05-10T11:13:03.348Z,101327.81
2023-05-10T11:15:31.955Z,101316.16
2023-05-10T11:17:58.569Z,101313.81
2023-05-10T11:20:34.033Z,101319.31
2023-05-10T11:23:13.944Z,101319.31
2023-05-10T11:25:47.235Z,101320.09
2023-05-10T11:28:14.076Z,101329.13
2023-05-10T11:30:42.162Z,101326.38
2023-05-10T11:33:09.331Z,101325.09
2023-05-10T11:35:43.199Z,101319.47
2023-05-10T11:38:12.130Z,101320.06
2023-05-10T11:40:39.875Z,101323.75
2023-05-10T11:43:06.721Z,101328.75
2023-05-10T11:45:34.446Z,101325.25
2023-05-10T11:48:02.081Z,101320.91
2023-05-10T11:50:29.119Z,101325.53
2023-05-10T11:52:57.616Z,101328.22
2023-05-10T11:55:25.235Z,101328.22
2023-05-10T11:57:54.271Z,101325.53
2023-05-10T12:00:21.138Z,101330.75
2023-05-10T12:02:49.054Z,101331.22
2023-05-10T12:05:16.013Z,101338.69
2023-05-10T12:07:42.522Z,101338.31
2023-05-10T12:10:16.320Z,101333.97
2023-05-10T12:12:45.871Z,101337.88
2023-05-10T12:15:18.685Z,101332.00
2023-05-10T12:17:46.202Z,101343.00
2023-05-10T12:20:20.810Z,101341.00
2023-05-10T12:22:55.413Z,101331.50
2023-05-10T12:25:23.641Z,101338.44
2023-05-10T12:27:52.784Z,101333.25
2023-05-10T12:30:29.774Z,101334.34
2023-05-10T12:33:02.606Z,101333.50
2023-05-10T12:35:32.332Z,101322.81
2023-05-10T12:37:59.359Z,101328.16
2023-05-10T12:40:25.978Z,101325.34
2023-05-10T12:42:53.193Z,101330.53
2023-05-10T12:45:19.791Z,101330.94
2023-05-10T12:47:46.373Z,101326.59
2023-05-10T12:50:12.931Z,101330.81
2023-05-10T12:52:39.440Z,101335.81
2023-05-10T12:55:06.157Z,101337.72
2023-05-10T12:57:32.792Z,101338.09
2023-05-10T12:59:59.287Z,101347.16
2023-05-10T13:02:26.037Z,101342.09
2023-05-10T13:04:53.056Z,101345.22
2023-05-10T13:07:19.665Z,101346.78
2023-05-10T13:09:46.372Z,101347.22
2023-05-10T13:12:12.968Z,101349.66
2023-05-10T13:14:41.439Z,101348.09
2023-05-10T13:17:08.270Z,101358.00
2023-05-10T13:19:34.923Z,101365.16
2023-05-10T13:22:02.579Z,101369.22
2023-05-10T13:24:29.209Z,101368.53
2023-05-10T13:26:57.067Z,101372.66
2023-05-10T13:29:23.726Z,101379.09
2023-05-10T13:31:50.586Z,101389.47
2023-05-10T13:34:17.438Z,101382.22
2023-05-10T13:36:44.093Z,101380.31
2023-05-10T13:39:10.631Z,101389.34
2023-05-10T13:41:37.812Z,101387.00
2023-05-10T13:44:04.639Z,101388.63
2023-05-10T13:46:31.858Z,101388.25
2023-05-10T13:49:07.313Z,101389.09
2023-05-10T13:51:35.303Z,101389.53
2023-05-10T13:54:02.182Z,101393.50
2023-05-10T13:56:28.852Z,101388.78
2023-05-10T13:58:55.464Z,101396.59
2023-05-10T14:01:22.009Z,101396.59
2023-05-10T14:03:49.152Z,101396.59
2023-05-10T14:06:15.959Z,101395.41
2023-05-10T14:08:43.047Z,101393.84
2023-05-10T14:11:09.840Z,101397.78
2023-05-10T14:13:36.489Z,101395.44
2023-05-10T14:16:04.147Z,101399.75
2023-05-10T14:18:31.033Z,101398.59
2023-05-10T14:20:58.827Z,101399.78
2023-05-10T14:23:25.363Z,101392.72
2023-05-10T14:25:53.117Z,101399.78
2023-05-10T14:28:21.500Z,101401.34
2023-05-10T14:30:48.307Z,101403.72
2023-05-10T14:33:15.405Z,101395.13
2023-05-10T14:35:42.124Z,101397.06
2023-05-10T14:38:08.814Z,101400.59
2023-05-10T14:40:35.624Z,101405.28
2023-05-10T14:43:02.186Z,101397.06
2023-05-10T14:45:29.782Z,101396.66
2023-05-10T14:47:57.465Z,101399.81
2023-05-10T14:50:35.985Z,101401.75
2023-05-10T14:53:03.879Z,101397.44
2023-05-10T14:55:31.031Z,101399.78
2023-05-10T14:57:58.290Z,101398.59
2023-05-10T15:00:24.970Z,101396.63
2023-05-10T15:02:51.900Z,101396.25
2023-05-10T15:05:19.214Z,101403.66
2023-05-10T15:07:46.448Z,101400.91
2023-05-10T15:10:13.218Z,101399.72
2023-05-10T15:12:39.782Z,101404.00
2023-05-10T15:15:07.394Z,101407.50
2023-05-10T15:17:34.473Z,101402.41
2023-05-10T15:20:03.959Z,101406.28
2023-05-10T15:22:34.195Z,101404.69
2023-05-10T15:25:01.136Z,101394.84
2023-05-10T15:27:27.719Z,101398.72
2023-05-10T15:29:54.333Z,101400.28
2023-05-10T15:32:22.789Z,101401.41
2023-05-10T15:34:49.393Z,101402.97
2023-05-10T15:37:15.981Z,101403.34
2023-05-10T15:39:42.565Z,101399.81
2023-05-10T15:42:09.184Z,101401.72
2023-05-10T15:44:36.103Z,101404.91
2023-05-10T15:47:03.793Z,101404.91
2023-05-10T15:49:30.589Z,101406.84
2023-05-10T15:51:57.119Z,101407.66
2023-05-10T15:54:23.624Z,101415.06
2023-05-10T15:56:50.175Z,101417.03
2023-05-10T15:59:16.713Z,101423.28
2023-05-10T16:01:44.373Z,101418.19
2023-05-10T16:04:10.982Z,101416.63
2023-05-10T16:06:37.982Z,101419.38
2023-05-10T16:09:04.739Z,101428.75
2023-05-10T16:11:31.413Z,101420.91
2023-05-10T16:13:58.107Z,101426.78
2023-05-10T16:16:24.752Z,101428.38
2023-05-10T16:18:52.440Z,101426.84
2023-05-10T16:21:19.214Z,101425.69
2023-05-10T16:23:46.516Z,101430.34
2023-05-10T16:26:13.195Z,101429.59
2023-05-10T16:28:41.909Z,101426.84
2023-05-10T16:31:08.417Z,101433.53
2023-05-10T16:33:35.299Z,101440.94
2023-05-10T16:36:01.792Z,101435.84
2023-05-10T16:38:28.397Z,101434.69
2023-05-10T16:40:56.429Z,101432.31
2023-05-10T16:43:24.701Z,101437.38
2023-05-10T16:45:52.675Z,101436.22
2023-05-10T16:48:19.191Z,101442.84
2023-05-10T16:50:45.980Z,101434.13
2023-05-10T16:53:12.775Z,101436.03
2023-05-10T16:55:39.368Z,101439.53
2023-05-10T16:58:05.939Z,101436.75
2023-05-10T17:00:32.632Z,101432.41
2023-05-10T17:02:59.366Z,101444.50
2023-05-10T17:05:26.440Z,101447.56
2023-05-10T17:07:53.089Z,101448.72
2023-05-10T17:10:19.802Z,101445.97
2023-05-10T17:12:46.436Z,101443.22
2023-05-10T17:15:13.271Z,101443.28
2023-05-10T17:17:39.889Z,101450.75
2023-05-10T17:20:07.369Z,101453.13
2023-05-10T17:22:34.082Z,101456.31
2023-05-10T17:39:05.131Z,101467.31
2023-05-10T17:41:36.813Z,101475.19
2023-05-10T17:44:29.170Z,101476.75
2023-05-10T17:50:32.806Z,101479.53
2023-05-10T17:53:04.531Z,101482.69
2023-05-10T17:55:35.495Z,101489.78
2023-05-10T17:58:03.276Z,101482.72
2023-05-10T18:00:30.111Z,101483.13
2023-05-10T18:02:56.879Z,101490.97
2023-05-10T18:05:24.148Z,101486.69
2023-05-10T18:07:53.609Z,101486.31
2023-05-10T18:10:21.671Z,101491.03
2023-05-10T18:13:08.864Z,101487.94
2023-05-10T18:15:35.841Z,101492.22
2023-05-10T18:18:05.283Z,101499.31
2023-05-10T18:20:32.013Z,101489.91
2023-05-10T18:22:58.814Z,101496.22
2023-05-10T18:25:59.744Z,101492.31
2023-05-10T18:28:29.674Z,101488.81
2023-05-10T18:31:19.621Z,101491.53
2023-05-10T18:36:50.296Z,101492.31
2023-05-10T18:39:19.496Z,101491.94
2023-05-10T18:41:46.525Z,101492.75
2023-05-10T18:44:13.285Z,101493.56
2023-05-10T18:49:23.049Z,101499.84
2023-05-10T18:51:54.689Z,101502.59
2023-05-10T18:54:23.480Z,101503.38
2023-05-10T18:56:53.341Z,101507.28
2023-05-10T18:59:20.186Z,101502.63
2023-05-10T19:01:47.938Z,101507.31
2023-05-10T19:04:16.393Z,101512.41
2023-05-10T19:06:43.261Z,101511.25
2023-05-10T19:11:54.249Z,101513.22
2023-05-10T19:14:21.441Z,101523.41
2023-05-10T19:16:48.440Z,101523.03
2023-05-10T19:19:15.446Z,101511.28
2023-05-10T19:21:42.475Z,101523.03
2023-05-10T19:43:49.191Z,101545.72
2023-05-10T19:46:20.520Z,101546.50
2023-05-10T19:52:15.208Z,101556.69
2023-05-10T19:58:23.677Z,101541.81
2023-05-10T20:04:50.528Z,101550.81
2023-05-10T20:07:47.961Z,101548.44
2023-05-10T20:13:51.734Z,101551.56
2023-05-10T20:16:25.083Z,101552.31
2023-05-10T20:19:19.768Z,101557.41
2023-05-10T20:49:42.417Z,101574.94
2023-05-10T21:14:06.769Z,101566.31
2023-05-10T21:16:37.811Z,101571.41
2023-05-10T21:22:58.390Z,101559.69
2023-05-10T21:25:51.676Z,101564.75
2023-05-10T21:28:21.766Z,101563.97
2023-05-10T21:31:15.182Z,101565.53
2023-05-10T21:36:27.280Z,101553.41
2023-05-10T21:38:58.980Z,101555.38
2023-05-10T21:41:28.665Z,101549.09
2023-05-10T21:43:58.249Z,101549.88
2023-05-10T21:46:50.152Z,101556.53
2023-05-10T21:49:38.992Z,101547.94
2023-05-10T21:57:55.948Z,101552.56
2023-05-10T22:03:23.477Z,101555.72
2023-05-10T22:04:07.458Z,101554.91
2023-05-10T22:09:25.457Z,101559.97
2023-05-10T22:11:54.674Z,101564.28
2023-05-10T22:19:49.125Z,101566.97
2023-05-10T22:22:18.424Z,101577.91
2023-05-10T22:24:47.387Z,101574.81
2023-05-10T22:30:00.574Z,101568.53
2023-05-10T22:32:27.641Z,101567.34
2023-05-10T22:35:26.922Z,101565.78
2023-05-10T22:37:43.940Z,101563.03
2023-05-10T22:40:11.693Z,101569.31
2023-05-10T22:42:40.568Z,101573.59
2023-05-10T22:45:08.145Z,101562.28
2023-05-10T22:47:35.165Z,101567.75
2023-05-10T22:50:05.804Z,101568.91
2023-05-10T22:52:32.526Z,101571.63
2023-05-10T22:54:59.382Z,101561.88
2023-05-10T22:57:26.672Z,101564.63
2023-05-10T22:59:55.624Z,101564.22
2023-05-10T23:02:22.314Z,101566.16
2023-05-10T23:04:49.333Z,101579.84
2023-05-10T23:07:16.121Z,101586.47
2023-05-10T23:09:42.859Z,101574.75
2023-05-10T23:12:09.809Z,101571.59
2023-05-10T23:14:36.468Z,101584.09
2023-05-10T23:17:03.240Z,101588.78
2023-05-10T23:19:33.405Z,101590.75
2023-05-10T23:22:02.490Z,101586.06
2023-05-10T23:24:29.214Z,101582.50
2023-05-10T23:26:58.138Z,101590.72
2023-05-10T23:32:09.109Z,101594.25
2023-05-10T23:34:38.860Z,101600.50
2023-05-10T23:37:10.872Z,101592.66
2023-05-10T23:39:37.728Z,101596.97
2023-05-10T23:42:04.609Z,101587.59
2023-05-10T23:44:31.740Z,101591.53
2023-05-10T23:46:58.666Z,101589.19
2023-05-10T23:49:28.527Z,101588.38
2023-05-10T23:51:55.375Z,101594.25
2023-05-10T23:54:22.238Z,101588.78
2023-05-10T23:57:15.138Z,101590.72
